Ministro Pistarini International Airport
SAEZ : rendu visible

Aérodrome :











RETROUVEZ-NOUS SUR...

 
LOGIN :

S'inscrire | Disclaimer

   EN    FR    IT 

 









Légende :    VFR   VFR Marginal   IFR   IFR Intensif   IFR Très Intensif
Visi : 
Plafond : 
>= 8 km
>= 3000ft
5 à 8 km
1000 à 3000 ft
1500m à 5 km
500 à 1000 ft
800 à 1500m
200 à 500 ft
< 800m
< 200 ft
Symboles :   Orages  Brouillard  Fortes neiges  Fortes précipitations  Vent > 20 kt






- Altitude de l'aérodrome : 67 ft
- Code IATA : EZE


SAEZ - Ministro Pistarini International

DERNIER METAR :
  • 040900Z 01003KT 9000 NSC 15/14 Q1012 NOSIG

METARs EXPIRÉS :
  • 040800Z 02003KT 9000 NSC 11/11 Q1012 NOSIG
  • 040700Z VRB01KT 9000 NSC 13/11 Q1012 BECMG 3000 BR

TAF TAF SAEZ
Valide du 04 à 06h jusqu'au 05 à 06h UTC


040500Z 0406/0506 VRB03KT 7000 NSC TX25/0418Z TN12/0410Z
BECMG 0406/0408 3000 BR
BECMG 0411/0413 34010KT CAVOK
BECMG 0421/0423 35005KT



MET'MAP, la Météo Aéronautique d'un coup d'oeil ! - Copyright ORBIFLY Décembre 2007 - Disclaimer

ORBIFLY MET'MAP TEAM :

Programmation & Développement : Alexandra Zaïnal
Sur une idée originale de : Baudouin d'Aumeries
Assistance à la programmation : Marc-Olivier Méhu
Soutien technique & logistique : Manuel Goepfert

Contact : metmap@orbifly.com




SOURCES & CREDITS :

   NOAA       Earth
Advisory